sensor_id;sensor_type;location;lat;lon;timestamp;P1;durP1;ratioP1;P2;durP2;ratioP2
78668;SDS011;67984;45.118;20.724;2023-05-07T00:08:38;3.70;;;1.87;;
78668;SDS011;67984;45.118;20.724;2023-05-07T00:18:38;6.70;;;2.40;;
78668;SDS011;67984;45.118;20.724;2023-05-07T00:28:39;6.03;;;2.92;;
78668;SDS011;67984;45.118;20.724;2023-05-07T00:38:41;6.88;;;3.30;;
78668;SDS011;67984;45.118;20.724;2023-05-07T00:48:42;5.73;;;2.13;;
78668;SDS011;67984;45.118;20.724;2023-05-07T00:58:42;3.40;;;2.60;;
78668;SDS011;67984;45.118;20.724;2023-05-07T01:08:43;11.38;;;2.75;;
78668;SDS011;67984;45.118;20.724;2023-05-07T01:18:45;4.13;;;2.40;;
78668;SDS011;67984;45.118;20.724;2023-05-07T01:28:48;6.10;;;2.70;;
78668;SDS011;67984;45.118;20.724;2023-05-07T01:38:49;4.15;;;2.70;;
78668;SDS011;67984;45.118;20.724;2023-05-07T01:48:50;4.85;;;3.10;;
78668;SDS011;67984;45.118;20.724;2023-05-07T01:58:51;3.72;;;2.65;;
78668;SDS011;67984;45.118;20.724;2023-05-07T02:08:52;4.53;;;2.85;;
78668;SDS011;67984;45.118;20.724;2023-05-07T02:18:54;3.72;;;2.83;;
78668;SDS011;67984;45.118;20.724;2023-05-07T02:28:55;3.83;;;3.40;;
78668;SDS011;67984;45.118;20.724;2023-05-07T02:38:56;5.85;;;3.33;;
78668;SDS011;67984;45.118;20.724;2023-05-07T02:48:57;5.03;;;3.65;;
78668;SDS011;67984;45.118;20.724;2023-05-07T02:58:58;6.70;;;3.50;;
78668;SDS011;67984;45.118;20.724;2023-05-07T03:09:03;6.20;;;3.15;;
78668;SDS011;67984;45.118;20.724;2023-05-07T03:19:04;7.55;;;3.05;;
78668;SDS011;67984;45.118;20.724;2023-05-07T03:29:05;4.72;;;3.17;;
78668;SDS011;67984;45.118;20.724;2023-05-07T03:39:06;4.30;;;2.78;;
78668;SDS011;67984;45.118;20.724;2023-05-07T03:49:12;3.28;;;2.88;;
78668;SDS011;67984;45.118;20.724;2023-05-07T03:59:13;7.63;;;3.47;;
78668;SDS011;67984;45.118;20.724;2023-05-07T04:09:17;3.53;;;2.10;;
78668;SDS011;67984;45.118;20.724;2023-05-07T04:19:21;4.40;;;2.60;;
78668;SDS011;67984;45.118;20.724;2023-05-07T04:29:25;3.47;;;2.28;;
78668;SDS011;67984;45.118;20.724;2023-05-07T04:39:28;13.20;;;6.32;;
78668;SDS011;67984;45.118;20.724;2023-05-07T04:49:29;3.10;;;2.35;;
78668;SDS011;67984;45.118;20.724;2023-05-07T04:59:32;2.95;;;2.25;;
78668;SDS011;67984;45.118;20.724;2023-05-07T05:09:33;4.15;;;2.42;;
78668;SDS011;67984;45.118;20.724;2023-05-07T05:19:35;11.52;;;4.00;;
78668;SDS011;67984;45.118;20.724;2023-05-07T05:29:35;6.45;;;2.33;;
78668;SDS011;67984;45.118;20.724;2023-05-07T05:39:36;3.77;;;1.80;;
78668;SDS011;67984;45.118;20.724;2023-05-07T05:49:37;4.82;;;2.22;;
78668;SDS011;67984;45.118;20.724;2023-05-07T05:59:40;2.58;;;1.50;;
78668;SDS011;67984;45.118;20.724;2023-05-07T06:09:42;12.98;;;2.10;;
78668;SDS011;67984;45.118;20.724;2023-05-07T06:19:43;4.55;;;1.25;;
78668;SDS011;67984;45.118;20.724;2023-05-07T06:29:45;9.52;;;1.25;;
78668;SDS011;67984;45.118;20.724;2023-05-07T06:39:49;6.97;;;1.33;;
78668;SDS011;67984;45.118;20.724;2023-05-07T06:49:51;5.70;;;2.03;;
78668;SDS011;67984;45.118;20.724;2023-05-07T06:59:54;4.78;;;1.58;;
78668;SDS011;67984;45.118;20.724;2023-05-07T07:09:56;4.20;;;1.10;;
78668;SDS011;67984;45.118;20.724;2023-05-07T07:19:56;4.50;;;1.77;;
78668;SDS011;67984;45.118;20.724;2023-05-07T07:29:57;5.18;;;1.38;;
78668;SDS011;67984;45.118;20.724;2023-05-07T07:39:59;6.40;;;1.17;;
78668;SDS011;67984;45.118;20.724;2023-05-07T07:50:18;6.65;;;1.70;;
78668;SDS011;67984;45.118;20.724;2023-05-07T08:00:19;4.72;;;1.15;;
78668;SDS011;67984;45.118;20.724;2023-05-07T08:10:25;4.47;;;1.20;;
78668;SDS011;67984;45.118;20.724;2023-05-07T08:20:32;3.95;;;1.63;;
78668;SDS011;67984;45.118;20.724;2023-05-07T08:30:36;2.03;;;1.05;;
78668;SDS011;67984;45.118;20.724;2023-05-07T08:40:38;2.08;;;0.98;;
78668;SDS011;67984;45.118;20.724;2023-05-07T08:50:43;2.35;;;1.33;;
78668;SDS011;67984;45.118;20.724;2023-05-07T09:00:46;9.25;;;1.67;;
78668;SDS011;67984;45.118;20.724;2023-05-07T09:10:47;5.03;;;2.05;;
78668;SDS011;67984;45.118;20.724;2023-05-07T09:20:49;2.95;;;1.80;;
78668;SDS011;67984;45.118;20.724;2023-05-07T09:30:55;2.85;;;1.30;;
78668;SDS011;67984;45.118;20.724;2023-05-07T09:51:28;6.13;;;1.60;;
78668;SDS011;67984;45.118;20.724;2023-05-07T10:01:34;4.25;;;1.45;;
78668;SDS011;67984;45.118;20.724;2023-05-07T10:11:37;5.65;;;2.05;;
78668;SDS011;67984;45.118;20.724;2023-05-07T10:21:48;6.18;;;1.75;;
78668;SDS011;67984;45.118;20.724;2023-05-07T10:42:33;2.90;;;1.50;;
78668;SDS011;67984;45.118;20.724;2023-05-07T10:52:34;2.25;;;1.83;;
78668;SDS011;67984;45.118;20.724;2023-05-07T11:03:19;3.92;;;1.65;;
78668;SDS011;67984;45.118;20.724;2023-05-07T11:34:01;2.42;;;1.45;;
78668;SDS011;67984;45.118;20.724;2023-05-07T11:44:02;1.75;;;1.65;;
78668;SDS011;67984;45.118;20.724;2023-05-07T11:54:03;4.50;;;1.75;;
78668;SDS011;67984;45.118;20.724;2023-05-07T12:04:08;2.13;;;1.70;;
78668;SDS011;67984;45.118;20.724;2023-05-07T12:14:09;1.73;;;1.03;;
78668;SDS011;67984;45.118;20.724;2023-05-07T12:24:10;3.53;;;1.70;;
78668;SDS011;67984;45.118;20.724;2023-05-07T12:34:11;6.20;;;1.65;;
78668;SDS011;67984;45.118;20.724;2023-05-07T12:44:12;2.15;;;1.70;;
78668;SDS011;67984;45.118;20.724;2023-05-07T12:54:31;3.33;;;1.33;;
78668;SDS011;67984;45.118;20.724;2023-05-07T13:04:32;3.65;;;1.52;;
78668;SDS011;67984;45.118;20.724;2023-05-07T13:14:33;2.10;;;1.73;;
78668;SDS011;67984;45.118;20.724;2023-05-07T13:24:34;2.83;;;1.27;;
78668;SDS011;67984;45.118;20.724;2023-05-07T13:34:35;2.50;;;0.93;;
78668;SDS011;67984;45.118;20.724;2023-05-07T13:44:35;1.27;;;1.03;;
78668;SDS011;67984;45.118;20.724;2023-05-07T13:54:36;2.10;;;1.37;;
78668;SDS011;67984;45.118;20.724;2023-05-07T14:04:37;1.73;;;1.33;;
78668;SDS011;67984;45.118;20.724;2023-05-07T14:14:38;3.00;;;1.45;;
78668;SDS011;67984;45.118;20.724;2023-05-07T14:24:39;8.63;;;1.43;;
78668;SDS011;67984;45.118;20.724;2023-05-07T14:34:39;1.13;;;1.13;;
78668;SDS011;67984;45.118;20.724;2023-05-07T14:44:40;4.53;;;1.63;;
78668;SDS011;67984;45.118;20.724;2023-05-07T14:54:42;1.08;;;0.90;;
78668;SDS011;67984;45.118;20.724;2023-05-07T15:14:46;1.25;;;1.10;;
78668;SDS011;67984;45.118;20.724;2023-05-07T15:24:47;0.90;;;0.88;;
78668;SDS011;67984;45.118;20.724;2023-05-07T15:34:48;5.07;;;1.13;;
78668;SDS011;67984;45.118;20.724;2023-05-07T15:44:50;2.85;;;1.85;;
78668;SDS011;67984;45.118;20.724;2023-05-07T15:54:51;3.05;;;1.00;;
78668;SDS011;67984;45.118;20.724;2023-05-07T16:04:52;2.47;;;1.03;;
78668;SDS011;67984;45.118;20.724;2023-05-07T16:14:53;3.60;;;1.42;;
78668;SDS011;67984;45.118;20.724;2023-05-07T16:24:54;2.57;;;1.10;;
78668;SDS011;67984;45.118;20.724;2023-05-07T16:34:55;3.38;;;1.23;;
78668;SDS011;67984;45.118;20.724;2023-05-07T16:44:56;4.77;;;1.50;;
78668;SDS011;67984;45.118;20.724;2023-05-07T16:54:56;6.10;;;2.13;;
78668;SDS011;67984;45.118;20.724;2023-05-07T17:05:00;11.45;;;4.60;;
78668;SDS011;67984;45.118;20.724;2023-05-07T17:15:01;19.47;;;3.67;;
78668;SDS011;67984;45.118;20.724;2023-05-07T17:25:02;9.25;;;2.13;;
78668;SDS011;67984;45.118;20.724;2023-05-07T17:35:03;6.03;;;2.05;;
78668;SDS011;67984;45.118;20.724;2023-05-07T17:45:04;5.65;;;1.75;;
78668;SDS011;67984;45.118;20.724;2023-05-07T17:55:06;5.68;;;2.75;;
78668;SDS011;67984;45.118;20.724;2023-05-07T18:05:07;11.43;;;2.22;;
78668;SDS011;67984;45.118;20.724;2023-05-07T18:15:08;4.55;;;2.38;;
78668;SDS011;67984;45.118;20.724;2023-05-07T18:25:09;5.72;;;2.90;;
78668;SDS011;67984;45.118;20.724;2023-05-07T18:35:10;10.90;;;5.00;;
78668;SDS011;67984;45.118;20.724;2023-05-07T18:45:11;4.90;;;2.78;;
78668;SDS011;67984;45.118;20.724;2023-05-07T18:55:12;8.60;;;2.67;;
78668;SDS011;67984;45.118;20.724;2023-05-07T19:05:12;11.50;;;4.03;;
78668;SDS011;67984;45.118;20.724;2023-05-07T19:15:13;8.27;;;3.60;;
78668;SDS011;67984;45.118;20.724;2023-05-07T19:25:14;5.87;;;3.20;;
78668;SDS011;67984;45.118;20.724;2023-05-07T19:35:15;8.50;;;4.22;;
78668;SDS011;67984;45.118;20.724;2023-05-07T19:45:16;11.65;;;4.57;;
78668;SDS011;67984;45.118;20.724;2023-05-07T19:55:16;7.55;;;3.55;;
78668;SDS011;67984;45.118;20.724;2023-05-07T20:05:17;5.13;;;4.00;;
78668;SDS011;67984;45.118;20.724;2023-05-07T20:15:18;9.97;;;3.53;;
78668;SDS011;67984;45.118;20.724;2023-05-07T20:25:20;8.48;;;3.38;;
78668;SDS011;67984;45.118;20.724;2023-05-07T20:35:21;3.93;;;2.53;;
78668;SDS011;67984;45.118;20.724;2023-05-07T20:45:21;4.53;;;3.27;;
78668;SDS011;67984;45.118;20.724;2023-05-07T20:55:22;5.40;;;3.60;;
78668;SDS011;67984;45.118;20.724;2023-05-07T21:05:23;5.80;;;3.40;;
78668;SDS011;67984;45.118;20.724;2023-05-07T21:15:23;6.93;;;2.93;;
78668;SDS011;67984;45.118;20.724;2023-05-07T21:25:24;6.07;;;3.70;;
78668;SDS011;67984;45.118;20.724;2023-05-07T21:35:25;6.27;;;3.97;;
78668;SDS011;67984;45.118;20.724;2023-05-07T21:45:26;10.10;;;4.05;;
78668;SDS011;67984;45.118;20.724;2023-05-07T21:55:27;5.30;;;4.13;;
78668;SDS011;67984;45.118;20.724;2023-05-07T22:05:27;5.03;;;3.63;;
78668;SDS011;67984;45.118;20.724;2023-05-07T22:15:28;4.10;;;3.70;;
78668;SDS011;67984;45.118;20.724;2023-05-07T22:25:30;5.22;;;3.92;;
78668;SDS011;67984;45.118;20.724;2023-05-07T22:35:33;6.20;;;3.78;;
78668;SDS011;67984;45.118;20.724;2023-05-07T22:45:34;6.37;;;3.40;;
78668;SDS011;67984;45.118;20.724;2023-05-07T22:55:35;4.43;;;3.63;;
78668;SDS011;67984;45.118;20.724;2023-05-07T23:05:35;3.43;;;3.13;;
78668;SDS011;67984;45.118;20.724;2023-05-07T23:15:36;4.32;;;3.45;;
78668;SDS011;67984;45.118;20.724;2023-05-07T23:25:37;7.72;;;3.33;;
78668;SDS011;67984;45.118;20.724;2023-05-07T23:35:38;6.03;;;3.13;;
78668;SDS011;67984;45.118;20.724;2023-05-07T23:45:38;7.90;;;4.80;;
78668;SDS011;67984;45.118;20.724;2023-05-07T23:55:39;6.30;;;4.17;;
